createdAt,value
2022-12-05T00:00:17.281Z,101188.25
2022-12-05T00:02:39.447Z,101175.41
2022-12-05T00:04:41.331Z,101184.31
2022-12-05T00:06:44.005Z,101184.13
2022-12-05T00:08:46.343Z,101159.16
2022-12-05T00:10:48.121Z,101166.06
2022-12-05T00:12:50.558Z,101183.69
2022-12-05T00:14:52.382Z,101173.50
2022-12-05T00:16:54.278Z,101169.25
2022-12-05T00:18:59.211Z,101166.63
2022-12-05T00:21:00.990Z,101183.16
2022-12-05T00:23:02.859Z,101178.09
2022-12-05T00:25:08.582Z,101180.94
2022-12-05T00:27:10.343Z,101187.25
2022-12-05T00:29:12.910Z,101190.00
2022-12-05T00:31:17.449Z,101203.22
2022-12-05T00:33:19.287Z,101168.88
2022-12-05T00:35:21.088Z,101192.63
2022-12-05T00:37:23.769Z,101186.59
2022-12-05T00:39:25.563Z,101186.53
2022-12-05T00:41:28.949Z,101189.03
2022-12-05T00:43:31.785Z,101189.44
2022-12-05T00:45:33.737Z,101188.91
2022-12-05T00:47:36.500Z,101180.66
2022-12-05T00:49:38.720Z,101194.97
2022-12-05T00:51:43.364Z,101183.88
2022-12-05T00:53:47.061Z,101181.19
2022-12-05T00:55:49.234Z,101194.13
2022-12-05T00:57:50.970Z,101199.66
2022-12-05T00:59:53.116Z,101188.28
2022-12-05T01:01:54.996Z,101186.78
2022-12-05T01:03:58.963Z,101182.50
2022-12-05T01:06:01.616Z,101197.66
2022-12-05T01:08:03.488Z,101180.84
2022-12-05T01:10:06.155Z,101180.81
2022-12-05T01:12:08.331Z,101170.75
2022-12-05T01:14:12.454Z,101187.88
2022-12-05T01:16:23.572Z,101163.19
2022-12-05T01:18:27.293Z,101176.81
2022-12-05T01:20:29.146Z,101174.72
2022-12-05T01:22:31.344Z,101163.56
2022-12-05T01:24:33.127Z,101175.13
2022-12-05T01:26:35.613Z,101170.09
2022-12-05T01:28:37.707Z,101156.75
2022-12-05T01:30:41.201Z,101158.50
2022-12-05T01:32:43.462Z,101172.81
2022-12-05T01:34:45.208Z,101162.84
2022-12-05T01:36:47.599Z,101163.16
2022-12-05T01:38:50.330Z,101147.56
2022-12-05T01:41:00.730Z,101161.53
2022-12-05T01:43:03.955Z,101148.66
2022-12-05T01:45:15.054Z,101164.31
2022-12-05T01:47:18.687Z,101144.59
2022-12-05T01:49:27.813Z,101155.72
2022-12-05T01:51:31.231Z,101159.69
2022-12-05T01:53:33.960Z,101153.53
2022-12-05T01:55:38.201Z,101147.47
2022-12-05T01:57:41.428Z,101149.16
2022-12-05T01:59:47.369Z,101147.50
2022-12-05T02:01:49.902Z,101141.63
2022-12-05T02:03:56.040Z,101152.31
2022-12-05T02:05:58.920Z,101152.19
2022-12-05T02:08:04.415Z,101155.56
2022-12-05T02:10:07.199Z,101149.81
2022-12-05T02:12:09.421Z,101134.94
2022-12-05T02:14:21.904Z,101137.50
2022-12-05T02:16:36.094Z,101145.38
2022-12-05T02:18:49.443Z,101142.41
2022-12-05T02:21:07.634Z,101134.81
2022-12-05T02:24:00.989Z,101123.78
2022-12-05T02:26:35.771Z,101116.25
2022-12-05T02:29:03.527Z,101126.03
2022-12-05T02:31:18.643Z,101116.75
2022-12-05T02:33:44.537Z,101115.16
2022-12-05T02:36:01.937Z,101112.09
2022-12-05T02:38:12.789Z,101123.09
2022-12-05T02:40:29.815Z,101115.16
2022-12-05T02:42:45.746Z,101114.19
2022-12-05T02:44:57.673Z,101127.53
2022-12-05T02:47:00.929Z,101129.28
2022-12-05T02:49:05.457Z,101123.16
2022-12-05T02:51:09.605Z,101109.78
2022-12-05T02:53:14.454Z,101103.63
2022-12-05T02:55:19.066Z,101100.75
2022-12-05T02:57:22.201Z,101085.38
2022-12-05T02:59:24.571Z,101088.44
2022-12-05T03:01:30.276Z,101080.13
2022-12-05T03:03:33.574Z,101082.63
2022-12-05T03:05:47.306Z,101070.91
2022-12-05T03:07:52.587Z,101072.31
2022-12-05T03:10:00.829Z,101070.53
2022-12-05T03:12:11.697Z,101077.69
2022-12-05T03:14:21.679Z,101068.16
2022-12-05T03:16:33.050Z,101074.09
2022-12-05T03:18:44.221Z,101066.00
2022-12-05T03:20:57.330Z,101072.44
2022-12-05T03:23:18.618Z,101075.16
2022-12-05T03:25:25.455Z,101068.91
2022-12-05T03:27:49.684Z,101073.53
2022-12-05T03:30:14.562Z,101069.34
2022-12-05T03:32:35.637Z,101081.00
2022-12-05T03:34:46.182Z,101074.88
2022-12-05T03:36:52.426Z,101080.00
2022-12-05T03:39:02.165Z,101106.09
2022-12-05T03:41:19.898Z,101105.59
2022-12-05T03:43:27.591Z,101103.16
2022-12-05T03:45:41.476Z,101104.63
2022-12-05T03:48:02.591Z,101099.38
2022-12-05T03:50:14.555Z,101089.16
2022-12-05T03:52:27.458Z,101122.00
2022-12-05T03:54:36.077Z,101123.00
2022-12-05T03:56:46.245Z,101105.94
2022-12-05T03:58:55.551Z,101101.78
2022-12-05T04:01:01.528Z,101104.63
2022-12-05T04:03:26.998Z,101111.72
2022-12-05T04:05:49.866Z,101110.22
2022-12-05T04:07:59.539Z,101120.09
2022-12-05T04:10:12.308Z,101101.41
2022-12-05T04:12:19.955Z,101104.34
2022-12-05T04:14:31.119Z,101100.97
2022-12-05T04:17:05.901Z,101089.09
2022-12-05T04:20:04.326Z,101070.44
2022-12-05T04:22:07.050Z,101082.38
2022-12-05T04:24:42.686Z,101071.78
2022-12-05T04:26:53.535Z,101078.97
2022-12-05T04:29:02.719Z,101086.16
2022-12-05T04:31:19.367Z,101079.38
2022-12-05T04:33:41.006Z,101066.81
2022-12-05T04:36:19.233Z,101060.63
2022-12-05T04:38:30.059Z,101068.84
2022-12-05T04:40:39.631Z,101066.13
2022-12-05T04:42:43.175Z,101072.56
2022-12-05T04:44:51.114Z,101071.63
2022-12-05T04:46:56.962Z,101069.66
2022-12-05T04:49:02.176Z,101072.88
2022-12-05T04:51:06.340Z,101073.09
2022-12-05T04:53:11.240Z,101059.22
2022-12-05T04:55:20.659Z,101068.94
2022-12-05T04:57:29.320Z,101061.50
2022-12-05T04:59:31.319Z,101056.34
2022-12-05T05:02:06.919Z,101052.97
2022-12-05T05:04:15.002Z,101070.25
2022-12-05T05:06:18.283Z,101073.41
2022-12-05T05:08:25.865Z,101074.53
2022-12-05T05:11:05.945Z,101063.22
2022-12-05T05:13:07.781Z,101075.16
2022-12-05T05:15:10.222Z,101088.78
2022-12-05T05:17:12.077Z,101070.38
2022-12-05T05:19:14.559Z,101077.53
2022-12-05T05:21:28.526Z,101078.19
2022-12-05T05:23:30.394Z,101083.41
2022-12-05T05:25:32.642Z,101078.69
2022-12-05T05:27:34.422Z,101075.88
2022-12-05T05:29:36.206Z,101080.03
2022-12-05T05:31:40.218Z,101093.41
2022-12-05T05:33:42.514Z,101082.13
2022-12-05T05:35:44.326Z,101088.88
2022-12-05T05:37:46.494Z,101089.34
2022-12-05T05:39:48.235Z,101101.56
2022-12-05T05:41:50.065Z,101081.50
2022-12-05T05:43:53.175Z,101095.22
2022-12-05T05:45:55.073Z,101094.06
2022-12-05T05:47:56.915Z,101100.22
2022-12-05T05:49:59.306Z,101092.41
2022-12-05T05:52:01.302Z,101099.34
2022-12-05T05:54:03.179Z,101106.25
2022-12-05T05:56:07.783Z,101090.84
2022-12-05T05:58:09.706Z,101096.03
2022-12-05T06:00:12.411Z,101099.41
2022-12-05T06:02:14.425Z,101100.16
2022-12-05T06:04:16.265Z,101096.63
2022-12-05T06:06:19.987Z,101112.13
2022-12-05T06:08:22.207Z,101091.50
2022-12-05T06:10:24.074Z,101085.22
2022-12-05T06:12:25.920Z,101087.53
2022-12-05T06:14:28.025Z,101097.78
2022-12-05T06:16:31.292Z,101092.41
2022-12-05T06:18:34.051Z,101080.84
2022-12-05T06:20:36.070Z,101087.94
2022-12-05T06:22:37.850Z,101080.13
2022-12-05T06:24:40.060Z,101081.00
2022-12-05T06:26:42.166Z,101084.47
2022-12-05T06:28:44.576Z,101098.75
2022-12-05T06:30:47.235Z,101094.78
2022-12-05T06:32:48.990Z,101078.78
2022-12-05T06:34:50.741Z,101069.72
2022-12-05T06:36:52.882Z,101087.25
2022-12-05T06:38:54.636Z,101089.41
2022-12-05T06:40:56.452Z,101084.16
2022-12-05T06:42:58.672Z,101091.34
2022-12-05T06:45:00.576Z,101081.38
2022-12-05T06:47:02.689Z,101083.81
2022-12-05T06:49:04.446Z,101077.44
2022-12-05T06:51:10.033Z,101084.53
2022-12-05T06:53:12.155Z,101101.22
2022-12-05T06:55:13.970Z,101094.88
2022-12-05T06:57:16.250Z,101087.34
2022-12-05T06:59:18.141Z,101103.38
2022-12-05T07:01:42.246Z,101087.88
2022-12-05T07:03:44.774Z,101075.63
2022-12-05T07:05:46.543Z,101082.63
2022-12-05T07:07:48.602Z,101091.34
2022-12-05T07:09:53.959Z,101080.22
2022-12-05T07:11:55.753Z,101086.34
2022-12-05T07:13:57.540Z,101081.94
2022-12-05T07:16:00.257Z,101086.25
2022-12-05T07:18:02.134Z,101086.56
2022-12-05T07:20:04.987Z,101080.31
2022-12-05T07:22:10.734Z,101077.88
2022-12-05T07:24:17.053Z,101067.84
2022-12-05T07:26:22.172Z,101083.53
2022-12-05T07:28:25.023Z,101085.75
2022-12-05T07:30:26.781Z,101073.22
2022-12-05T07:32:33.423Z,101072.00
2022-12-05T07:34:35.726Z,101075.44
2022-12-05T07:36:37.669Z,101073.91
2022-12-05T07:38:40.912Z,101067.53
2022-12-05T07:40:43.066Z,101079.03
2022-12-05T07:42:48.493Z,101077.50
2022-12-05T07:44:50.285Z,101068.13
2022-12-05T07:46:52.426Z,101065.69
2022-12-05T07:48:55.001Z,101084.09
2022-12-05T07:51:05.196Z,101068.28
2022-12-05T07:53:07.328Z,101058.59
2022-12-05T07:55:09.400Z,101057.00
2022-12-05T07:57:11.560Z,101055.03
2022-12-05T07:59:13.373Z,101049.66
2022-12-05T08:01:21.459Z,101055.66
2022-12-05T08:03:23.903Z,101066.13
2022-12-05T08:05:25.689Z,101056.72
2022-12-05T08:07:27.801Z,101058.53
2022-12-05T08:09:29.682Z,101038.00
2022-12-05T08:11:36.189Z,101051.09
2022-12-05T08:13:38.269Z,101045.34
2022-12-05T08:15:42.510Z,101044.78
2022-12-05T08:17:44.653Z,101040.72
2022-12-05T08:19:48.608Z,101045.91
2022-12-05T08:21:52.486Z,101053.09
2022-12-05T08:23:54.869Z,101044.78
2022-12-05T08:25:56.790Z,101065.78
2022-12-05T08:27:58.982Z,101056.78
2022-12-05T08:30:00.930Z,101055.56
2022-12-05T08:32:03.625Z,101056.75
2022-12-05T08:34:05.902Z,101044.03
2022-12-05T08:36:11.138Z,101061.69
2022-12-05T08:38:13.290Z,101048.31
2022-12-05T08:40:15.229Z,101063.69
2022-12-05T08:42:17.443Z,101056.50
2022-12-05T08:44:19.677Z,101068.28
2022-12-05T08:46:21.922Z,101054.91
2022-12-05T08:48:29.188Z,101021.81
2022-12-05T08:50:33.573Z,101051.84
2022-12-05T08:52:35.491Z,101053.66
2022-12-05T08:54:37.771Z,101049.34
2022-12-05T08:56:39.718Z,101050.84
2022-12-05T08:58:41.911Z,101067.66
2022-12-05T09:00:44.061Z,101058.94
2022-12-05T09:02:52.114Z,101066.13
2022-12-05T09:04:54.453Z,101050.28
2022-12-05T09:06:56.858Z,101043.03
2022-12-05T09:09:01.153Z,101038.31
2022-12-05T09:11:21.348Z,101054.91
2022-12-05T09:13:24.293Z,101033.59
2022-12-05T09:15:26.532Z,101036.72
2022-12-05T09:17:28.531Z,101042.28
2022-12-05T09:19:31.128Z,101035.63
2022-12-05T09:21:33.017Z,101015.88
2022-12-05T09:23:35.728Z,101045.75
2022-12-05T09:25:37.871Z,101031.28
2022-12-05T09:27:39.890Z,101014.59
2022-12-05T09:29:43.453Z,101013.72
2022-12-05T09:31:47.711Z,100999.91
2022-12-05T09:33:50.827Z,101010.66
2022-12-05T09:35:53.185Z,101004.91
2022-12-05T09:37:57.140Z,101000.59
2022-12-05T09:39:58.989Z,100996.44
2022-12-05T09:42:18.552Z,100975.69
2022-12-05T09:44:58.363Z,101003.84
2022-12-05T09:47:19.797Z,101003.03
2022-12-05T09:49:24.852Z,100997.88
2022-12-05T09:51:27.131Z,100995.69
2022-12-05T09:53:34.716Z,100973.28
2022-12-05T09:55:42.295Z,101004.31
2022-12-05T09:57:54.026Z,100989.91
2022-12-05T09:59:56.516Z,100999.56
2022-12-05T10:02:24.338Z,101005.22
2022-12-05T10:04:26.240Z,100987.44
2022-12-05T10:06:37.870Z,100986.38
2022-12-05T10:09:27.772Z,100986.63
2022-12-05T10:11:39.201Z,100982.41
2022-12-05T10:13:47.118Z,100989.09
2022-12-05T10:15:57.578Z,100983.16
2022-12-05T10:18:09.346Z,100983.00
2022-12-05T10:20:18.641Z,100955.53
2022-12-05T10:22:26.902Z,100972.03
2022-12-05T10:24:33.923Z,100972.53
2022-12-05T10:26:46.166Z,100981.22
2022-12-05T10:29:33.954Z,100972.72
2022-12-05T10:31:39.063Z,100969.19
2022-12-05T10:33:47.428Z,100975.75
2022-12-05T10:35:53.835Z,100955.56
2022-12-05T10:38:00.265Z,100960.94
2022-12-05T10:40:02.143Z,100957.97
2022-12-05T10:42:05.316Z,100964.78
2022-12-05T10:44:08.682Z,100964.34
2022-12-05T10:46:17.411Z,100943.88
2022-12-05T10:48:21.423Z,100939.84
2022-12-05T10:50:23.584Z,100952.25
2022-12-05T10:52:25.674Z,100951.56
2022-12-05T10:54:39.252Z,100956.78
2022-12-05T10:56:42.874Z,100961.19
2022-12-05T10:58:54.628Z,100957.47
2022-12-05T11:01:09.642Z,100955.97
2022-12-05T11:03:32.390Z,100955.66
2022-12-05T11:05:35.922Z,100956.06
2022-12-05T11:07:48.571Z,100950.91
2022-12-05T11:09:52.095Z,100938.06
2022-12-05T11:12:00.601Z,100951.94
2022-12-05T11:14:20.853Z,100941.75
2022-12-05T11:16:25.583Z,100937.78
2022-12-05T11:18:32.172Z,100938.56
2022-12-05T11:20:39.385Z,100929.69
2022-12-05T11:22:47.271Z,100937.19
2022-12-05T11:24:50.453Z,100930.53
2022-12-05T11:26:52.594Z,100916.75
2022-12-05T11:28:55.261Z,100882.81
2022-12-05T11:31:20.995Z,100898.97
2022-12-05T11:33:25.932Z,100889.16
2022-12-05T11:35:28.915Z,100900.25
2022-12-05T11:37:38.295Z,100909.22
2022-12-05T11:39:41.039Z,100917.69
2022-12-05T11:42:13.412Z,100902.75
2022-12-05T11:44:55.700Z,100889.16
2022-12-05T11:47:21.190Z,100899.69
2022-12-05T11:49:41.780Z,100880.16
2022-12-05T11:52:05.622Z,100900.13
2022-12-05T11:54:22.586Z,100902.69
2022-12-05T11:57:03.888Z,100908.75
2022-12-05T11:59:32.300Z,100891.47
2022-12-05T12:01:48.381Z,100893.03
2022-12-05T12:04:02.632Z,100907.03
2022-12-05T12:06:31.463Z,100897.84
2022-12-05T12:08:48.614Z,100895.59
2022-12-05T12:11:11.408Z,100895.63
2022-12-05T12:13:29.579Z,100893.00
2022-12-05T12:16:08.944Z,100892.53
2022-12-05T12:18:32.514Z,100880.97
2022-12-05T12:20:37.169Z,100886.91
2022-12-05T12:22:54.022Z,100874.59
2022-12-05T12:25:03.333Z,100872.06
2022-12-05T12:27:42.089Z,100878.56
2022-12-05T12:30:02.323Z,100885.16
2022-12-05T12:32:30.624Z,100881.47
2022-12-05T12:34:38.839Z,100879.38
2022-12-05T12:36:55.415Z,100870.81
2022-12-05T12:39:08.389Z,100858.88
2022-12-05T12:41:21.945Z,100875.34
2022-12-05T12:43:59.334Z,100874.09
2022-12-05T12:46:39.182Z,100866.56
2022-12-05T12:48:40.989Z,100874.47
2022-12-05T12:50:47.193Z,100860.81
2022-12-05T12:53:07.007Z,100861.41
2022-12-05T12:56:02.595Z,100857.84
2022-12-05T12:58:11.951Z,100870.22
2022-12-05T13:00:29.688Z,100856.53
2022-12-05T13:02:49.752Z,100858.44
2022-12-05T13:05:01.097Z,100863.84
2022-12-05T13:07:19.149Z,100851.38
2022-12-05T13:09:34.022Z,100850.19
2022-12-05T13:11:40.227Z,100865.31
2022-12-05T13:13:58.786Z,100866.84
2022-12-05T13:16:06.171Z,100869.19
2022-12-05T13:18:18.435Z,100858.28
2022-12-05T13:20:25.395Z,100861.63
2022-12-05T13:22:28.736Z,100848.53
2022-12-05T13:24:30.572Z,100859.00
2022-12-05T13:26:36.832Z,100850.19
2022-12-05T13:28:54.803Z,100852.94
2022-12-05T13:30:58.564Z,100850.81
2022-12-05T13:33:07.190Z,100843.94
2022-12-05T13:35:17.228Z,100846.94
2022-12-05T13:37:40.695Z,100835.56
2022-12-05T13:40:09.034Z,100832.53
2022-12-05T13:42:29.261Z,100836.38
2022-12-05T13:44:38.767Z,100848.19
2022-12-05T13:46:43.467Z,100837.66
2022-12-05T13:48:49.802Z,100840.16
2022-12-05T13:50:57.703Z,100836.38
2022-12-05T13:53:05.797Z,100826.63
2022-12-05T13:55:38.299Z,100833.34
2022-12-05T13:57:40.274Z,100830.31
2022-12-05T14:00:01.679Z,100824.53
2022-12-05T14:02:42.010Z,100831.09
2022-12-05T14:04:50.910Z,100820.31
2022-12-05T14:06:52.851Z,100826.97
2022-12-05T14:08:55.324Z,100806.81
2022-12-05T14:10:57.152Z,100820.59
2022-12-05T14:13:01.258Z,100805.09
2022-12-05T14:15:04.221Z,100812.22
2022-12-05T14:17:08.246Z,100826.22
2022-12-05T14:19:34.700Z,100827.88
2022-12-05T14:21:53.168Z,100819.38
2022-12-05T14:24:26.391Z,100821.81
2022-12-05T14:27:16.710Z,100817.69
2022-12-05T14:29:39.568Z,100819.06
2022-12-05T14:31:43.237Z,100821.00
2022-12-05T14:33:45.665Z,100804.94
2022-12-05T14:35:53.355Z,100794.84
2022-12-05T14:37:59.667Z,100788.84
2022-12-05T14:40:23.532Z,100785.00
2022-12-05T14:43:00.995Z,100788.78
2022-12-05T14:45:24.377Z,100784.66
2022-12-05T14:47:32.736Z,100773.59
2022-12-05T14:49:52.530Z,100786.31
2022-12-05T14:51:58.071Z,100789.06
2022-12-05T14:54:12.187Z,100800.59
2022-12-05T14:56:27.653Z,100780.16
2022-12-05T14:58:35.974Z,100778.63
2022-12-05T15:00:42.655Z,100781.91
2022-12-05T15:02:52.095Z,100768.69
2022-12-05T15:05:14.859Z,100758.28
2022-12-05T15:07:23.059Z,100769.81
2022-12-05T15:09:56.939Z,100758.66
2022-12-05T15:11:59.100Z,100775.56
2022-12-05T15:14:08.237Z,100774.53
2022-12-05T15:16:19.539Z,100756.09
2022-12-05T15:18:29.250Z,100776.16
2022-12-05T15:20:43.815Z,100777.81
2022-12-05T15:22:45.748Z,100771.22
2022-12-05T15:24:48.054Z,100761.56
2022-12-05T15:26:58.578Z,100775.34
2022-12-05T15:29:02.442Z,100778.06
2022-12-05T15:31:04.844Z,100765.34
2022-12-05T15:33:12.798Z,100758.66
2022-12-05T15:35:16.232Z,100752.69
2022-12-05T15:37:55.810Z,100764.53
2022-12-05T15:39:59.423Z,100757.47
2022-12-05T15:42:01.633Z,100760.56
2022-12-05T15:44:05.215Z,100758.97
2022-12-05T15:46:27.585Z,100752.09
2022-12-05T15:48:30.459Z,100761.78
2022-12-05T15:50:42.711Z,100756.22
2022-12-05T15:52:51.418Z,100749.59
2022-12-05T15:54:54.568Z,100757.69
2022-12-05T15:57:17.244Z,100748.63
2022-12-05T15:59:28.956Z,100747.47
2022-12-05T16:01:35.125Z,100727.34
2022-12-05T16:03:42.513Z,100749.72
2022-12-05T16:05:57.244Z,100741.59
2022-12-05T16:08:02.940Z,100738.91
2022-12-05T16:10:05.825Z,100746.88
2022-12-05T16:12:33.873Z,100739.81
2022-12-05T16:17:04.569Z,100741.97
2022-12-05T16:19:18.323Z,100734.91
2022-12-05T16:21:38.800Z,100737.03
2022-12-05T16:23:44.531Z,100738.09
2022-12-05T16:25:46.349Z,100730.19
2022-12-05T16:28:19.050Z,100717.06
2022-12-05T16:30:22.784Z,100711.34
2022-12-05T16:32:25.719Z,100730.53
2022-12-05T16:34:32.018Z,100729.88
2022-12-05T16:36:35.066Z,100728.00
2022-12-05T16:38:37.762Z,100722.53
2022-12-05T16:40:51.209Z,100723.38
2022-12-05T16:43:05.451Z,100733.13
2022-12-05T16:45:44.561Z,100731.22
2022-12-05T16:47:53.153Z,100731.78
2022-12-05T16:49:55.168Z,100708.56
2022-12-05T16:52:03.240Z,100711.84
2022-12-05T16:54:05.474Z,100707.22
2022-12-05T16:56:13.605Z,100723.38
2022-12-05T16:58:30.078Z,100707.75
2022-12-05T17:00:36.847Z,100712.72
2022-12-05T17:02:38.662Z,100701.44
2022-12-05T17:04:41.114Z,100701.59
2022-12-05T17:06:43.352Z,100706.53
2022-12-05T17:08:45.201Z,100717.06
2022-12-05T17:10:49.180Z,100715.72
2022-12-05T17:12:51.610Z,100702.28
2022-12-05T17:14:53.638Z,100699.75
2022-12-05T17:16:55.803Z,100710.78
2022-12-05T17:18:57.682Z,100705.88
2022-12-05T17:21:01.715Z,100713.53
2022-12-05T17:23:04.623Z,100704.25
2022-12-05T17:25:28.742Z,100684.34
2022-12-05T17:27:31.033Z,100712.44
2022-12-05T17:29:35.845Z,100706.41
2022-12-05T17:31:39.105Z,100711.38
2022-12-05T17:33:41.072Z,100697.38
2022-12-05T17:35:47.262Z,100705.28
2022-12-05T17:37:51.878Z,100705.91
2022-12-05T17:39:53.795Z,100720.94
2022-12-05T17:41:56.308Z,100690.13
2022-12-05T17:43:58.738Z,100701.19
2022-12-05T17:46:01.163Z,100705.91
2022-12-05T17:48:03.498Z,100694.19
2022-12-05T17:50:06.806Z,100708.38
2022-12-05T17:52:24.832Z,100699.09
2022-12-05T17:54:27.062Z,100704.63
2022-12-05T17:56:28.885Z,100698.56
2022-12-05T17:58:30.737Z,100687.66
2022-12-05T18:00:32.951Z,100692.31
2022-12-05T18:02:34.854Z,100701.59
2022-12-05T18:04:37.119Z,100689.31
2022-12-05T18:06:39.555Z,100693.72
2022-12-05T18:08:43.994Z,100691.25
2022-12-05T18:10:48.968Z,100691.78
2022-12-05T18:12:51.417Z,100705.13
2022-12-05T18:14:53.326Z,100704.06
2022-12-05T18:16:55.228Z,100689.03
2022-12-05T18:18:57.420Z,100695.34
2022-12-05T18:21:10.946Z,100708.41
2022-12-05T18:23:13.917Z,100705.72
2022-12-05T18:25:16.019Z,100715.28
2022-12-05T18:27:18.798Z,100715.22
2022-12-05T18:29:20.984Z,100698.06
2022-12-05T18:31:23.269Z,100693.41
2022-12-05T18:33:25.580Z,100704.31
2022-12-05T18:35:42.748Z,100683.31
2022-12-05T18:37:44.650Z,100693.97
2022-12-05T18:39:46.991Z,100696.44
2022-12-05T18:41:48.804Z,100665.84
2022-12-05T18:43:52.288Z,100692.56
2022-12-05T18:45:59.171Z,100680.63
2022-12-05T18:48:16.294Z,100675.94
2022-12-05T18:50:23.271Z,100674.88
2022-12-05T18:52:25.122Z,100663.66
2022-12-05T18:54:27.346Z,100673.50
2022-12-05T18:56:34.764Z,100695.91
2022-12-05T18:58:37.551Z,100695.88
2022-12-05T19:00:39.826Z,100676.22
2022-12-05T19:02:41.966Z,100677.88
2022-12-05T19:04:44.218Z,100682.53
2022-12-05T19:06:52.990Z,100682.53
2022-12-05T19:08:56.982Z,100668.84
2022-12-05T19:11:04.911Z,100678.13
2022-12-05T19:13:07.314Z,100672.97
2022-12-05T19:15:09.696Z,100690.47
2022-12-05T19:17:11.962Z,100671.03
2022-12-05T19:19:14.745Z,100688.81
2022-12-05T19:21:17.001Z,100677.84
2022-12-05T19:23:20.471Z,100677.88
2022-12-05T19:25:22.311Z,100681.72
2022-12-05T19:27:24.559Z,100676.50
2022-12-05T19:29:26.450Z,100689.38
2022-12-05T19:31:29.441Z,100674.88
2022-12-05T19:33:36.891Z,100683.88
2022-12-05T19:35:38.718Z,100689.63
2022-12-05T19:37:40.651Z,100681.97
2022-12-05T19:39:43.398Z,100669.69
2022-12-05T19:41:46.102Z,100693.97
2022-12-05T19:43:48.091Z,100683.59
2022-12-05T19:45:52.156Z,100682.78
2022-12-05T19:47:55.382Z,100677.88
2022-12-05T19:50:01.257Z,100684.72
2022-12-05T19:52:03.379Z,100675.69
2022-12-05T19:54:07.273Z,100672.69
2022-12-05T19:56:16.465Z,100669.41
2022-12-05T19:58:19.058Z,100665.31
2022-12-05T20:00:21.612Z,100653.59
2022-12-05T20:02:25.311Z,100645.91
2022-12-05T20:04:28.806Z,100653.03
2022-12-05T20:06:31.892Z,100674.34
2022-12-05T20:08:37.389Z,100662.88
2022-12-05T20:10:39.738Z,100644.81
2022-12-05T20:12:42.846Z,100654.94
2022-12-05T20:14:45.513Z,100662.06
2022-12-05T20:16:47.730Z,100637.19
2022-12-05T20:18:50.386Z,100641.56
2022-12-05T20:20:59.827Z,100648.66
2022-12-05T20:23:01.908Z,100648.09
2022-12-05T20:25:04.478Z,100641.84
2022-12-05T20:27:07.337Z,100642.38
2022-12-05T20:29:09.712Z,100632.56
2022-12-05T20:31:15.199Z,100628.16
2022-12-05T20:33:17.198Z,100636.91
2022-12-05T20:35:24.018Z,100633.91
2022-12-05T20:37:28.768Z,100632.53
2022-12-05T20:39:33.726Z,100632.56
2022-12-05T20:41:35.757Z,100620.25
2022-12-05T20:43:38.031Z,100625.19
2022-12-05T20:45:40.363Z,100619.69
2022-12-05T20:47:42.188Z,100636.66
2022-12-05T20:49:44.463Z,100629.56
2022-12-05T20:51:47.312Z,100635.81
2022-12-05T20:53:49.610Z,100628.16
2022-12-05T20:55:51.785Z,100633.34
2022-12-05T20:57:53.544Z,100636.38
2022-12-05T20:59:55.906Z,100637.19
2022-12-05T21:01:57.871Z,100633.63
2022-12-05T21:04:01.327Z,100627.06
2022-12-05T21:06:10.213Z,100629.81
2022-12-05T21:08:14.665Z,100613.69
2022-12-05T21:10:17.113Z,100626.25
2022-12-05T21:12:18.970Z,100616.16
2022-12-05T21:14:21.202Z,100603.56
2022-12-05T21:16:23.703Z,100621.03
2022-12-05T21:18:25.819Z,100627.34
2022-12-05T21:20:28.770Z,100619.41
2022-12-05T21:22:30.898Z,100613.69
2022-12-05T21:24:33.216Z,100621.34
2022-12-05T21:26:39.036Z,100622.16
2022-12-05T21:28:42.810Z,100612.31
2022-12-05T21:30:45.084Z,100611.22
2022-12-05T21:32:48.555Z,100619.41
2022-12-05T21:34:50.711Z,100613.09
2022-12-05T21:36:52.583Z,100619.41
2022-12-05T21:38:56.533Z,100606.84
2022-12-05T21:40:58.815Z,100602.50
2022-12-05T21:43:00.570Z,100613.41
2022-12-05T21:45:02.881Z,100598.13
2022-12-05T21:47:05.834Z,100607.94
2022-12-05T21:49:09.194Z,100601.38
2022-12-05T21:51:11.771Z,100599.16
2022-12-05T21:53:13.577Z,100597.81
2022-12-05T21:55:16.262Z,100587.38
2022-12-05T21:57:18.567Z,100602.47
2022-12-05T21:59:20.747Z,100562.84
2022-12-05T22:01:26.005Z,100593.41
2022-12-05T22:03:28.188Z,100594.81
2022-12-05T22:05:30.471Z,100597.81
2022-12-05T22:07:32.308Z,100604.13
2022-12-05T22:09:34.598Z,100592.66
2022-12-05T22:11:36.654Z,100600.53
2022-12-05T22:13:38.761Z,100598.91
2022-12-05T22:15:41.187Z,100593.97
2022-12-05T22:17:43.048Z,100593.75
2022-12-05T22:19:46.327Z,100591.53
2022-12-05T22:21:48.283Z,100591.31
2022-12-05T22:23:50.627Z,100584.94
2022-12-05T22:26:00.480Z,100582.50
2022-12-05T22:28:02.339Z,100586.00
2022-12-05T22:30:05.502Z,100585.47
2022-12-05T22:32:07.387Z,100572.69
2022-12-05T22:34:09.519Z,100579.50
2022-12-05T22:36:13.318Z,100579.53
2022-12-05T22:38:19.597Z,100571.34
2022-12-05T22:40:21.750Z,100570.47
2022-12-05T22:42:23.565Z,100568.59
2022-12-05T22:44:25.722Z,100552.72
2022-12-05T22:46:29.014Z,100542.13
2022-12-05T22:48:30.982Z,100549.47
2022-12-05T22:50:35.842Z,100539.63
2022-12-05T22:52:37.679Z,100540.44
2022-12-05T22:54:39.776Z,100550.50
2022-12-05T22:56:41.541Z,100555.50
2022-12-05T22:58:44.820Z,100542.41
2022-12-05T23:00:46.563Z,100553.00
2022-12-05T23:02:48.371Z,100556.59
2022-12-05T23:04:50.631Z,100549.44
2022-12-05T23:06:52.399Z,100546.16
2022-12-05T23:08:54.822Z,100548.94
2022-12-05T23:10:58.477Z,100544.56
2022-12-05T23:13:00.277Z,100544.28
2022-12-05T23:15:02.113Z,100546.69
2022-12-05T23:17:04.263Z,100538.28
2022-12-05T23:19:06.266Z,100544.53
2022-12-05T23:21:08.066Z,100544.31
2022-12-05T23:23:10.290Z,100551.69
2022-12-05T23:25:12.133Z,100538.56
2022-12-05T23:27:13.899Z,100534.97
2022-12-05T23:29:16.225Z,100546.38
2022-12-05T23:31:18.704Z,100540.97
2022-12-05T23:33:20.497Z,100533.06
2022-12-05T23:35:22.754Z,100540.16
2022-12-05T23:37:24.694Z,100532.00
2022-12-05T23:39:26.835Z,100531.19
2022-12-05T23:41:28.739Z,100518.56
2022-12-05T23:43:32.517Z,100524.81
2022-12-05T23:45:34.638Z,100533.88
2022-12-05T23:47:36.521Z,100523.81
2022-12-05T23:49:38.639Z,100523.22
2022-12-05T23:51:40.606Z,100524.81
2022-12-05T23:53:44.472Z,100530.84
2022-12-05T23:55:46.605Z,100529.75
2022-12-05T23:57:48.383Z,100516.69
2022-12-05T23:59:50.641Z,100532.50
